Time;durP1;ratioP1;P1;durP2;ratioP2;P2;SDS_P1;SDS_P2;PMS_P1;PMS_P2;Temp;Humidity;BMP_temperature;BMP_pressure;BME280_temperature;BME280_humidity;BME280_pressure;Samples;Min_cycle;Max_cycle;Signal;HPM_P1;HPM_P2
2021/04/09 00:02:07;;;;;;;6.68;2.33;;;9.10;94.60;;;;;;5059384;28;20032;-46
2021/04/09 00:05:15;;;;;;;7.13;2.67;;;9.10;94.50;;;;;;5064772;28;20040;-46
2021/04/09 00:08:19;;;;;;;4.32;2.10;;;9.10;94.60;;;;;;5054176;28;20036;-46
2021/04/09 00:11:24;;;;;;;5.75;1.98;;;9.20;94.60;;;;;;5064985;28;20040;-45
2021/04/09 00:14:29;;;;;;;13.20;4.60;;;9.20;94.60;;;;;;5068278;28;20530;-45
2021/04/09 00:17:34;;;;;;;8.10;3.30;;;9.10;94.20;;;;;;5071032;28;20044;-46
2021/04/09 00:20:39;;;;;;;8.10;3.42;;;9.20;94.00;;;;;;5071319;28;20036;-45
2021/04/09 00:23:42;;;;;;;3.10;1.80;;;9.10;94.50;;;;;;5071564;28;20079;-45
2021/04/09 00:26:48;;;;;;;3.63;1.42;;;9.10;94.70;;;;;;5070110;28;20419;-47
2021/04/09 00:29:52;;;;;;;6.63;1.80;;;9.10;94.50;;;;;;5071407;28;20032;-46
2021/04/09 00:32:56;;;;;;;9.15;3.30;;;9.20;94.50;;;;;;5060475;28;20502;-46
2021/04/09 00:36:02;;;;;;;6.65;2.88;;;9.00;95.20;;;;;;5068338;28;20041;-46
2021/04/09 00:39:07;;;;;;;6.25;2.80;;;9.00;94.80;;;;;;5070544;28;20032;-46
2021/04/09 00:42:19;;;;;;;5.50;1.55;;;9.00;94.60;;;;;;5059126;28;20389;-48
2021/04/09 00:45:23;;;;;;;5.68;1.92;;;8.90;94.80;;;;;;5066652;28;20028;-46
2021/04/09 00:48:27;;;;;;;4.72;1.80;;;8.90;94.50;;;;;;5070378;28;20036;-45
2021/04/09 00:51:32;;;;;;;8.60;3.42;;;8.90;95.00;;;;;;5071323;28;20518;-46
2021/04/09 00:54:37;;;;;;;11.20;4.28;;;8.80;96.80;;;;;;5069019;28;20032;-46
2021/04/09 00:57:43;;;;;;;6.78;2.65;;;8.40;98.50;;;;;;5068212;28;20036;-46
2021/04/09 01:00:47;;;;;;;9.43;4.00;;;8.00;99.50;;;;;;5057879;28;20044;-46
2021/04/09 01:03:53;;;;;;;11.10;4.35;;;7.80;99.90;;;;;;5071593;28;20048;-49
2021/04/09 01:06:57;;;;;;;10.13;4.75;;;7.60;99.90;;;;;;5070055;28;20051;-47
2021/04/09 01:10:05;;;;;;;11.00;4.95;;;7.50;99.90;;;;;;5071033;28;20051;-46
2021/04/09 01:13:10;;;;;;;11.68;5.70;;;7.50;99.90;;;;;;5071567;28;20048;-47
2021/04/09 01:16:33;;;;;;;11.93;4.47;;;7.50;99.90;;;;;;5067082;28;20418;-46
2021/04/09 01:19:55;;;;;;;9.95;5.00;;;7.60;99.90;;;;;;5058407;28;20047;-46
2021/04/09 01:23:29;;;;;;;11.18;4.50;;;7.50;99.90;;;;;;5057096;28;20507;-47
2021/04/09 01:27:29;;;;;;;15.88;5.88;;;7.60;99.90;;;;;;5058122;28;20035;-46
2021/04/09 01:31:10;;;;;;;11.18;3.88;;;7.70;99.90;;;;;;5069832;28;20051;-46
2021/04/09 01:34:17;;;;;;;11.70;4.03;;;7.80;99.90;;;;;;5069450;28;20055;-46
2021/04/09 01:37:26;;;;;;;8.57;3.60;;;7.70;99.90;;;;;;5069080;28;20039;-52
2021/04/09 01:40:35;;;;;;;9.27;4.00;;;7.80;99.90;;;;;;5062187;28;20384;-49
2021/04/09 01:43:43;;;;;;;8.00;3.58;;;7.80;99.90;;;;;;5067211;28;20037;-51
2021/04/09 01:46:52;;;;;;;8.07;4.22;;;7.90;99.90;;;;;;5059817;28;20048;-50
2021/04/09 01:49:59;;;;;;;9.98;4.95;;;7.80;99.90;;;;;;5068843;28;20041;-50
2021/04/09 01:53:05;;;;;;;13.38;5.47;;;7.40;99.90;;;;;;5069993;28;20045;-46
2021/04/09 01:56:11;;;;;;;12.85;6.38;;;7.10;99.90;;;;;;5068598;28;20040;-50
2021/04/09 01:59:17;;;;;;;11.57;4.90;;;7.10;99.90;;;;;;5069705;28;20047;-50
2021/04/09 02:02:22;;;;;;;10.93;5.38;;;7.10;99.90;;;;;;5058593;28;20043;-50
2021/04/09 02:05:29;;;;;;;10.90;4.95;;;7.10;99.90;;;;;;5069087;28;20514;-51
2021/04/09 02:08:36;;;;;;;11.80;5.22;;;7.20;99.90;;;;;;5069866;28;20052;-46
2021/04/09 02:11:41;;;;;;;9.70;5.47;;;7.30;99.90;;;;;;5069220;28;20052;-49
2021/04/09 02:14:47;;;;;;;15.43;5.90;;;7.20;99.90;;;;;;5068456;28;20048;-51
2021/04/09 02:17:51;;;;;;;12.27;5.85;;;7.00;99.90;;;;;;5058369;28;20055;-46
2021/04/09 02:21:02;;;;;;;10.70;5.50;;;6.70;99.90;;;;;;5056491;28;20501;-49
2021/04/09 02:24:07;;;;;;;13.98;6.47;;;6.70;99.90;;;;;;5067875;28;20047;-47
2021/04/09 02:27:11;;;;;;;20.17;7.13;;;6.60;99.90;;;;;;5067750;28;20047;-46
2021/04/09 02:30:17;;;;;;;16.00;7.03;;;6.60;99.90;;;;;;5069072;28;20060;-49
2021/04/09 02:33:21;;;;;;;13.80;6.93;;;6.60;99.90;;;;;;5069214;28;20516;-46
2021/04/09 02:36:30;;;;;;;15.13;6.78;;;6.60;99.90;;;;;;5061153;28;20059;-47
2021/04/09 02:39:38;;;;;;;13.20;6.32;;;6.70;99.90;;;;;;5055029;28;20051;-46
2021/04/09 02:42:46;;;;;;;8.88;5.25;;;6.80;99.90;;;;;;5069143;28;20044;-47
2021/04/09 02:45:53;;;;;;;13.60;5.10;;;6.80;99.90;;;;;;5064812;28;20040;-47
2021/04/09 02:49:04;;;;;;;15.05;5.07;;;6.80;99.90;;;;;;5068362;28;20039;-52
2021/04/09 02:52:18;;;;;;;11.10;5.60;;;6.80;99.90;;;;;;5056718;28;20047;-48
2021/04/09 02:55:33;;;;;;;8.30;5.57;;;6.90;99.90;;;;;;5065102;28;20047;-47
2021/04/09 02:58:12;;;;;;;13.32;6.20;;;6.80;99.90;;;;;;5124199;27;20833;-51
2021/04/09 03:01:21;;;;;;;9.45;4.80;;;6.80;99.90;;;;;;5126410;28;20035;-47
2021/04/09 03:04:29;;;;;;;17.17;8.40;;;6.90;99.90;;;;;;5114488;28;20043;-48
2021/04/09 03:07:36;;;;;;;18.48;7.50;;;6.60;99.90;;;;;;5115678;28;20039;-47
2021/04/09 03:10:41;;;;;;;14.38;7.80;;;6.70;99.90;;;;;;5098770;28;20035;-45
2021/04/09 03:13:45;;;;;;;11.20;6.85;;;6.80;99.90;;;;;;5124447;28;20482;-47
2021/04/09 03:17:02;;;;;;;14.43;7.15;;;6.80;99.90;;;;;;5111607;28;20031;-45
2021/04/09 03:20:07;;;;;;;16.58;9.40;;;6.80;99.90;;;;;;5122399;28;20040;-50
2021/04/09 03:23:11;;;;;;;20.08;8.57;;;6.70;99.90;;;;;;5109187;28;20039;-45
2021/04/09 03:26:15;;;;;;;13.38;7.82;;;6.70;99.90;;;;;;5115369;28;20043;-49
2021/04/09 03:29:19;;;;;;;16.95;7.90;;;6.90;99.90;;;;;;5123766;28;20040;-45
2021/04/09 03:32:23;;;;;;;18.63;9.35;;;7.00;99.90;;;;;;5123073;28;20036;-49
2021/04/09 03:35:27;;;;;;;18.38;9.15;;;6.90;99.90;;;;;;5119264;28;20043;-47
2021/04/09 03:38:31;;;;;;;14.52;6.78;;;6.90;99.90;;;;;;5117209;28;20378;-45
2021/04/09 03:41:35;;;;;;;11.57;7.38;;;6.90;99.90;;;;;;5103159;28;20031;-47
2021/04/09 03:44:47;;;;;;;15.73;6.83;;;6.80;99.90;;;;;;5110417;28;20035;-47
2021/04/09 03:47:51;;;;;;;11.30;6.32;;;6.90;99.90;;;;;;5117573;28;20035;-49
2021/04/09 03:50:55;;;;;;;14.15;6.28;;;6.90;99.90;;;;;;5126211;28;20047;-46
2021/04/09 03:53:59;;;;;;;10.65;5.88;;;7.00;99.90;;;;;;5114489;28;20046;-45
2021/04/09 03:57:04;;;;;;;7.05;4.20;;;7.00;99.90;;;;;;5109594;28;20039;-46
2021/04/09 04:00:09;;;;;;;12.05;3.67;;;7.00;99.90;;;;;;5121582;28;20035;-51
2021/04/09 04:03:13;;;;;;;9.85;3.70;;;7.20;99.90;;;;;;5095348;28;20414;-52
2021/04/09 04:06:17;;;;;;;5.75;2.63;;;7.20;99.90;;;;;;5092071;28;20036;-46
2021/04/09 04:09:22;;;;;;;7.45;2.33;;;7.40;99.90;;;;;;5084619;28;20044;-47
2021/04/09 04:12:26;;;;;;;6.78;3.30;;;7.40;99.90;;;;;;5088311;28;20399;-47
2021/04/09 04:15:30;;;;;;;6.22;3.35;;;7.50;99.90;;;;;;5091484;28;20027;-46
2021/04/09 04:18:34;;;;;;;13.68;6.28;;;7.50;99.90;;;;;;5092262;28;20036;-46
2021/04/09 04:21:38;;;;;;;26.50;12.02;;;7.40;99.90;;;;;;5092224;28;20375;-51
2021/04/09 04:24:42;;;;;;;24.92;12.60;;;7.10;99.90;;;;;;5090841;28;20454;-46
2021/04/09 04:27:46;;;;;;;24.85;13.10;;;6.80;99.90;;;;;;5088101;28;20051;-45
2021/04/09 04:30:50;;;;;;;24.45;11.35;;;6.20;99.90;;;;;;5096086;28;20523;-45
2021/04/09 04:33:54;;;;;;;26.45;13.23;;;5.80;99.90;;;;;;5098714;28;20043;-46
2021/04/09 04:37:00;;;;;;;22.95;12.07;;;5.70;99.90;;;;;;5085013;28;20406;-49
2021/04/09 04:40:05;;;;;;;20.73;10.40;;;5.70;99.90;;;;;;5095951;28;20509;-47
2021/04/09 04:43:09;;;;;;;22.10;12.98;;;5.70;99.90;;;;;;5093792;28;20038;-45
2021/04/09 04:46:13;;;;;;;23.85;13.07;;;5.80;99.90;;;;;;5095889;28;20055;-47
2021/04/09 04:49:17;;;;;;;26.02;12.93;;;5.80;99.90;;;;;;5087715;28;20046;-45
2021/04/09 04:52:22;;;;;;;28.27;13.18;;;5.80;99.90;;;;;;5084463;28;20051;-50
2021/04/09 04:55:27;;;;;;;24.63;12.18;;;5.70;99.90;;;;;;5076678;28;20032;-45
2021/04/09 04:58:31;;;;;;;25.15;13.60;;;5.70;99.90;;;;;;5078625;28;20126;-46
2021/04/09 05:01:36;;;;;;;22.98;13.00;;;5.80;99.90;;;;;;5082013;28;20509;-46
2021/04/09 05:04:40;;;;;;;22.83;13.55;;;5.80;99.90;;;;;;5079019;28;20039;-47
2021/04/09 05:07:44;;;;;;;25.45;13.68;;;5.80;99.90;;;;;;5079055;28;20055;-49
2021/04/09 05:10:48;;;;;;;27.88;13.43;;;6.00;99.90;;;;;;5077371;28;20063;-45
2021/04/09 05:13:52;;;;;;;29.23;13.93;;;6.10;99.90;;;;;;5074059;28;20043;-45
2021/04/09 05:16:56;;;;;;;26.33;13.55;;;6.20;99.90;;;;;;5073362;28;20040;-45
2021/04/09 05:20:00;;;;;;;26.42;12.57;;;6.40;99.90;;;;;;5073902;28;20039;-45
2021/04/09 05:23:05;;;;;;;27.10;13.05;;;6.50;99.90;;;;;;5075375;28;20035;-45
2021/04/09 05:26:09;;;;;;;25.05;13.50;;;6.60;99.90;;;;;;5072234;28;20107;-46
2021/04/09 05:29:13;;;;;;;28.30;14.10;;;6.60;99.90;;;;;;5083409;28;20051;-48
2021/04/09 05:32:17;;;;;;;25.45;13.82;;;6.60;99.90;;;;;;5086425;28;20043;-46
2021/04/09 05:35:24;;;;;;;26.63;13.68;;;6.40;99.90;;;;;;5082342;28;20063;-46
2021/04/09 05:38:28;;;;;;;26.98;14.02;;;6.50;99.90;;;;;;5078066;28;20044;-54
2021/04/09 05:41:33;;;;;;;26.52;13.25;;;6.50;99.90;;;;;;5092076;28;20057;-47
2021/04/09 05:44:37;;;;;;;24.95;12.65;;;6.70;99.90;;;;;;5086054;28;20052;-49
2021/04/09 05:47:40;;;;;;;25.10;12.98;;;6.70;99.90;;;;;;5076999;28;20047;-45
2021/04/09 05:50:45;;;;;;;20.05;10.98;;;6.90;99.90;;;;;;5071758;28;20063;-48
2021/04/09 05:53:50;;;;;;;24.08;11.10;;;7.00;99.90;;;;;;5079709;28;20054;-48
2021/04/09 05:56:54;;;;;;;25.85;11.95;;;7.20;99.90;;;;;;5074294;28;20047;-50
2021/04/09 05:59:58;;;;;;;29.88;12.95;;;7.30;99.90;;;;;;5073638;28;20041;-47
2021/04/09 06:03:02;;;;;;;24.30;11.43;;;7.40;99.90;;;;;;5072024;28;20040;-46
2021/04/09 06:06:06;;;;;;;21.65;11.43;;;7.50;99.90;;;;;;5071388;28;20040;-46
2021/04/09 06:09:10;;;;;;;24.42;11.90;;;7.10;99.90;;;;;;5070677;28;20047;-45
2021/04/09 06:12:15;;;;;;;24.23;11.60;;;6.80;99.90;;;;;;5078170;28;20494;-46
2021/04/09 06:15:19;;;;;;;22.23;10.90;;;6.70;99.90;;;;;;5078055;28;20043;-48
2021/04/09 06:18:24;;;;;;;26.08;11.38;;;6.90;99.90;;;;;;5075620;28;20035;-45
2021/04/09 06:21:29;;;;;;;20.02;11.27;;;7.10;99.90;;;;;;5076437;28;20517;-46
2021/04/09 06:24:33;;;;;;;21.88;11.52;;;7.50;99.90;;;;;;5079208;28;20046;-47
2021/04/09 06:27:37;;;;;;;33.22;16.45;;;7.90;99.90;;;;;;5076552;28;20517;-49
2021/04/09 06:30:42;;;;;;;29.42;16.38;;;8.30;99.90;;;;;;5085004;28;20046;-46
2021/04/09 06:33:46;;;;;;;28.85;15.07;;;8.40;99.90;;;;;;5074038;28;20048;-45
2021/04/09 06:36:51;;;;;;;30.52;16.63;;;8.70;99.90;;;;;;5072442;28;20398;-46
2021/04/09 06:39:55;;;;;;;31.13;16.40;;;9.10;99.90;;;;;;5075600;28;20032;-46
2021/04/09 06:43:00;;;;;;;26.63;14.10;;;10.30;99.90;;;;;;5080229;28;20054;-46
2021/04/09 06:46:04;;;;;;;23.88;12.85;;;13.00;99.90;;;;;;5073578;28;20054;-48
2021/04/09 06:49:09;;;;;;;19.83;11.80;;;15.40;96.20;;;;;;5073490;28;20446;-49
2021/04/09 06:52:13;;;;;;;24.95;14.05;;;16.40;94.00;;;;;;5077215;28;20051;-48
2021/04/09 06:55:20;;;;;;;18.15;11.18;;;16.60;91.00;;;;;;5072060;28;20063;-49
2021/04/09 06:58:25;;;;;;;17.92;11.60;;;17.50;90.10;;;;;;5067762;28;20050;-47
2021/04/09 07:01:30;;;;;;;16.70;10.45;;;17.50;86.20;;;;;;5073652;28;20059;-47
2021/04/09 07:04:34;;;;;;;18.80;10.32;;;17.80;83.70;;;;;;5071641;28;20047;-49
2021/04/09 07:07:39;;;;;;;13.77;9.02;;;16.80;87.50;;;;;;5071069;28;20052;-49
2021/04/09 07:10:43;;;;;;;12.95;9.15;;;17.90;83.40;;;;;;5074553;28;20497;-50
2021/04/09 07:13:52;;;;;;;14.90;8.40;;;16.60;84.00;;;;;;5077538;28;20043;-47
2021/04/09 07:17:03;;;;;;;12.30;7.50;;;18.20;80.70;;;;;;5078801;28;20073;-51
2021/04/09 07:20:12;;;;;;;12.82;7.38;;;18.50;79.70;;;;;;5075484;28;20406;-53
2021/04/09 07:23:17;;;;;;;15.20;8.00;;;15.60;81.10;;;;;;5076730;28;20035;-52
2021/04/09 07:26:43;;;;;;;12.75;7.07;;;16.00;82.70;;;;;;5078086;28;20066;-46
2021/04/09 07:29:48;;;;;;;12.10;7.47;;;16.90;78.70;;;;;;5079115;28;20135;-47
2021/04/09 07:32:52;;;;;;;15.20;6.75;;;18.20;77.90;;;;;;5079940;28;20043;-48
2021/04/09 07:35:59;;;;;;;14.93;6.45;;;19.40;74.90;;;;;;5076583;28;21107;-46
2021/04/09 07:39:02;;;;;;;8.07;5.25;;;19.60;72.50;;;;;;5073306;28;20056;-50
2021/04/09 07:42:09;;;;;;;9.23;5.57;;;20.80;69.70;;;;;;5088633;28;20410;-50
2021/04/09 07:45:15;;;;;;;9.00;5.80;;;21.40;67.80;;;;;;5072512;28;20040;-49
2021/04/09 07:48:27;;;;;;;14.65;7.00;;;21.00;67.20;;;;;;5083191;28;20052;-49
2021/04/09 07:51:31;;;;;;;11.37;6.47;;;19.50;68.90;;;;;;5076467;28;20043;-52
2021/04/09 07:54:36;;;;;;;9.32;5.78;;;20.50;67.40;;;;;;5084093;28;20043;-48
2021/04/09 07:57:39;;;;;;;9.80;5.18;;;18.90;69.60;;;;;;5085853;28;20410;-48
2021/04/09 08:00:45;;;;;;;10.35;5.80;;;21.50;66.00;;;;;;5085383;28;20036;-49
2021/04/09 08:03:49;;;;;;;11.27;4.63;;;21.10;65.00;;;;;;5082304;28;20414;-50
2021/04/09 08:06:54;;;;;;;9.48;4.10;;;19.20;68.10;;;;;;5078650;28;20050;-48
2021/04/09 08:09:58;;;;;;;6.38;2.90;;;22.00;64.30;;;;;;5075812;28;20051;-50
2021/04/09 08:13:04;;;;;;;9.82;3.28;;;23.80;60.60;;;;;;5077905;28;20411;-48
2021/04/09 08:16:32;;;;;;;8.82;3.53;;;24.20;58.60;;;;;;5078501;28;20387;-50
2021/04/09 08:19:41;;;;;;;4.05;1.45;;;24.80;56.30;;;;;;5088884;28;20043;-51
2021/04/09 08:22:45;;;;;;;6.00;2.58;;;21.20;58.90;;;;;;5083253;28;20040;-48
2021/04/09 08:25:53;;;;;;;6.65;2.05;;;20.80;59.20;;;;;;5088488;28;20038;-49
2021/04/09 08:28:58;;;;;;;3.60;2.05;;;21.50;60.00;;;;;;5084438;28;20063;-48
2021/04/09 08:32:03;;;;;;;4.95;1.60;;;19.90;61.10;;;;;;5080554;28;20047;-51
2021/04/09 08:35:08;;;;;;;6.50;1.63;;;22.20;59.40;;;;;;5082037;28;20407;-48
2021/04/09 08:38:12;;;;;;;4.20;1.38;;;20.00;59.00;;;;;;5075413;28;20043;-49
2021/04/09 08:41:18;;;;;;;3.55;1.40;;;22.50;59.40;;;;;;5074731;28;20055;-50
2021/04/09 08:44:23;;;;;;;8.43;1.27;;;24.90;55.60;;;;;;5075512;28;20043;-48
2021/04/09 08:47:29;;;;;;;3.35;1.60;;;26.20;54.20;;;;;;5080338;28;20047;-49
2021/04/09 08:50:33;;;;;;;8.50;2.05;;;27.70;52.30;;;;;;5073153;28;20059;-47
2021/04/09 08:53:37;;;;;;;6.40;1.80;;;28.40;50.70;;;;;;5071661;28;20032;-51
2021/04/09 08:56:42;;;;;;;4.38;1.60;;;29.60;48.80;;;;;;5078761;28;20035;-47
2021/04/09 08:59:49;;;;;;;4.65;1.60;;;30.20;47.50;;;;;;5073945;28;20390;-50
2021/04/09 09:02:55;;;;;;;6.78;1.50;;;30.00;45.70;;;;;;5080497;28;20036;-50
2021/04/09 09:06:09;;;;;;;5.22;1.50;;;29.40;45.20;;;;;;5083508;28;20046;-50
2021/04/09 09:09:40;;;;;;;2.08;1.10;;;29.20;46.00;;;;;;5091103;28;20056;-50
2021/04/09 09:13:15;;;;;;;2.28;1.20;;;31.70;44.30;;;;;;5075576;28;20426;-49
2021/04/09 09:16:20;;;;;;;3.35;1.13;;;33.50;42.60;;;;;;5072098;28;20048;-52
2021/04/09 09:19:39;;;;;;;5.78;1.88;;;35.40;40.60;;;;;;5079050;28;20344;-49
2021/04/09 09:22:53;;;;;;;8.25;2.67;;;36.00;38.50;;;;;;5074301;28;20040;-49
2021/04/09 09:26:35;;;;;;;5.68;1.77;;;33.90;39.20;;;;;;5078344;28;20035;-50
2021/04/09 09:29:47;;;;;;;5.13;1.75;;;33.10;40.30;;;;;;5077217;28;20509;-53
2021/04/09 09:33:27;;;;;;;6.75;1.80;;;32.80;39.70;;;;;;5075961;28;20032;-50
2021/04/09 09:37:12;;;;;;;7.05;1.95;;;33.20;40.20;;;;;;5074914;28;20036;-51
2021/04/09 09:40:42;;;;;;;8.65;2.58;;;32.40;38.70;;;;;;5074264;28;20045;-52
2021/04/09 09:43:46;;;;;;;9.25;4.80;;;29.00;41.30;;;;;;5072557;28;20515;-46
2021/04/09 09:46:53;;;;;;;4.53;2.17;;;26.30;44.00;;;;;;5092792;28;20042;-51
2021/04/09 09:50:12;;;;;;;6.40;2.13;;;24.30;44.90;;;;;;5085827;28;20039;-49
2021/04/09 09:53:16;;;;;;;4.30;2.15;;;21.50;47.60;;;;;;5074108;28;20082;-48
2021/04/09 09:56:28;;;;;;;4.47;1.67;;;21.00;50.80;;;;;;5072000;28;20036;-50
2021/04/09 09:59:31;;;;;;;3.05;1.73;;;21.20;51.10;;;;;;5072470;28;20398;-49
2021/04/09 10:02:36;;;;;;;6.32;2.33;;;21.50;50.70;;;;;;5073709;28;20036;-49
2021/04/09 10:06:02;;;;;;;3.03;1.60;;;21.40;49.40;;;;;;5074835;28;20033;-50
2021/04/09 10:09:07;;;;;;;6.55;2.25;;;21.50;48.60;;;;;;5074320;28;20028;-50
2021/04/09 10:12:21;;;;;;;9.00;2.10;;;21.60;49.20;;;;;;5077215;28;20036;-48
2021/04/09 10:15:27;;;;;;;3.75;1.92;;;21.80;49.60;;;;;;5077945;28;20113;-48
2021/04/09 10:18:32;;;;;;;4.53;1.67;;;23.70;48.60;;;;;;5078595;28;20053;-52
2021/04/09 10:21:39;;;;;;;6.10;1.88;;;26.20;44.10;;;;;;5076587;28;20032;-49
2021/04/09 10:24:43;;;;;;;5.10;1.90;;;28.00;42.20;;;;;;5071492;28;20040;-46
2021/04/09 10:27:48;;;;;;;3.30;1.60;;;25.50;43.00;;;;;;5068604;28;20541;-48
2021/04/09 10:30:54;;;;;;;5.07;1.77;;;24.80;45.20;;;;;;5072866;28;20048;-51
2021/04/09 10:34:01;;;;;;;6.63;1.73;;;26.50;44.50;;;;;;5073366;28;20541;-48
2021/04/09 10:37:06;;;;;;;4.07;1.73;;;28.30;43.10;;;;;;5077545;28;20055;-48
2021/04/09 10:40:10;;;;;;;7.07;1.70;;;29.10;42.00;;;;;;5083072;28;20031;-50
2021/04/09 10:43:35;;;;;;;6.10;1.80;;;27.10;42.40;;;;;;5077559;28;20040;-47
2021/04/09 10:46:41;;;;;;;4.07;1.73;;;28.50;41.80;;;;;;5080723;28;20046;-47
2021/04/09 10:49:46;;;;;;;6.78;1.88;;;28.20;41.30;;;;;;5077044;28;20045;-50
2021/04/09 10:52:50;;;;;;;2.63;1.65;;;27.00;42.40;;;;;;5085281;28;20045;-51
2021/04/09 10:56:11;;;;;;;3.17;1.88;;;26.40;40.80;;;;;;5071043;28;20047;-47
2021/04/09 10:59:15;;;;;;;6.50;1.70;;;26.70;42.30;;;;;;5067197;28;20047;-48
2021/04/09 11:02:24;;;;;;;4.13;1.80;;;28.60;41.20;;;;;;5077859;28;20434;-51
2021/04/09 11:05:29;;;;;;;4.45;1.70;;;28.70;41.70;;;;;;5079728;28;20118;-47
2021/04/09 11:08:39;;;;;;;4.47;1.52;;;24.90;41.50;;;;;;5088126;28;20042;-46
2021/04/09 11:11:44;;;;;;;3.45;1.55;;;23.20;43.30;;;;;;5081926;28;20043;-47
2021/04/09 11:15:09;;;;;;;4.28;1.67;;;25.40;43.10;;;;;;5074543;28;20051;-50
2021/04/09 11:18:14;;;;;;;5.47;1.85;;;28.30;41.80;;;;;;5074165;28;20047;-46
2021/04/09 11:21:43;;;;;;;4.07;1.48;;;21.30;44.00;;;;;;5081195;28;20043;-49
2021/04/09 11:24:56;;;;;;;3.40;1.55;;;23.00;45.60;;;;;;5074516;28;20051;-47
2021/04/09 11:28:02;;;;;;;4.05;1.70;;;24.50;44.00;;;;;;5072993;28;20052;-51
2021/04/09 11:31:08;;;;;;;5.95;2.40;;;27.30;41.80;;;;;;5075337;28;20063;-51
2021/04/09 11:34:12;;;;;;;5.13;2.30;;;24.80;41.70;;;;;;5092640;28;20035;-51
2021/04/09 11:37:19;;;;;;;4.70;2.22;;;20.90;46.10;;;;;;5105519;28;20040;-46
2021/04/09 11:40:44;;;;;;;4.10;2.00;;;20.20;48.50;;;;;;5078203;28;20051;-46
2021/04/09 11:43:48;;;;;;;4.30;1.90;;;22.60;45.80;;;;;;5090639;28;20047;-48
2021/04/09 11:46:54;;;;;;;5.15;1.52;;;26.60;42.60;;;;;;5078674;28;20588;-47
2021/04/09 11:50:06;;;;;;;3.70;1.40;;;28.80;40.50;;;;;;5080337;28;20047;-47
2021/04/09 11:53:10;;;;;;;5.28;1.70;;;28.90;40.80;;;;;;5077596;28;20513;-49
2021/04/09 11:56:16;;;;;;;4.93;1.63;;;25.20;40.30;;;;;;5075827;28;20044;-48
2021/04/09 11:59:21;;;;;;;3.47;1.60;;;29.10;39.50;;;;;;5072604;28;20047;-50
2021/04/09 12:02:27;;;;;;;6.72;1.80;;;31.50;38.20;;;;;;5071718;28;20057;-51
2021/04/09 12:05:34;;;;;;;4.50;1.73;;;26.50;39.20;;;;;;5076745;28;20037;-50
2021/04/09 12:08:39;;;;;;;4.97;1.80;;;24.80;43.70;;;;;;5078028;28;20558;-48
2021/04/09 12:11:44;;;;;;;5.20;1.88;;;25.80;41.80;;;;;;5076778;28;20036;-46
2021/04/09 12:14:50;;;;;;;5.50;1.95;;;20.40;43.90;;;;;;5072507;28;20040;-51
2021/04/09 12:17:56;;;;;;;4.35;1.58;;;21.20;46.50;;;;;;5074889;28;20044;-48
2021/04/09 12:21:01;;;;;;;3.28;1.65;;;23.20;43.90;;;;;;5071197;28;20039;-46
2021/04/09 12:24:06;;;;;;;8.52;1.65;;;26.60;40.20;;;;;;5073869;28;20036;-47
2021/04/09 12:27:11;;;;;;;4.85;1.83;;;27.30;40.00;;;;;;5074597;28;20057;-46
2021/04/09 12:30:16;;;;;;;4.60;1.63;;;28.20;39.30;;;;;;5069890;28;20036;-47
2021/04/09 12:33:20;;;;;;;3.03;1.33;;;28.90;38.80;;;;;;5071275;28;20044;-48
2021/04/09 12:36:24;;;;;;;4.07;1.92;;;29.30;38.50;;;;;;5074275;28;20041;-48
2021/04/09 12:39:29;;;;;;;5.03;1.50;;;31.10;39.30;;;;;;5075406;28;20039;-48
2021/04/09 12:42:34;;;;;;;3.25;1.13;;;33.10;38.30;;;;;;5074114;28;20528;-47
2021/04/09 12:45:37;;;;;;;3.15;1.00;;;29.90;36.00;;;;;;5078791;28;20044;-47
2021/04/09 12:48:42;;;;;;;3.75;1.10;;;23.90;41.10;;;;;;5076495;28;20445;-47
2021/04/09 12:51:49;;;;;;;4.68;1.20;;;22.60;42.10;;;;;;5059985;28;20036;-50
2021/04/09 12:55:04;;;;;;;2.25;1.08;;;25.60;40.00;;;;;;5078443;28;20046;-46
2021/04/09 12:58:09;;;;;;;2.08;1.08;;;24.20;40.00;;;;;;5076160;28;20048;-48
2021/04/09 13:01:13;;;;;;;3.33;1.17;;;26.70;38.80;;;;;;5074057;28;20403;-48
2021/04/09 13:04:17;;;;;;;6.72;1.38;;;22.80;40.30;;;;;;5072621;28;20028;-49
2021/04/09 13:07:21;;;;;;;3.35;1.17;;;20.60;44.80;;;;;;5074486;28;20040;-47
2021/04/09 13:10:25;;;;;;;2.97;1.50;;;21.20;44.60;;;;;;5071310;28;20398;-47
2021/04/09 13:13:29;;;;;;;2.70;1.30;;;23.00;42.40;;;;;;5077661;28;20044;-47
2021/04/09 13:16:34;;;;;;;2.15;1.00;;;24.80;42.50;;;;;;5074401;28;20024;-47
2021/04/09 13:19:38;;;;;;;3.10;1.10;;;22.90;42.00;;;;;;5073066;28;20037;-50
2021/04/09 13:22:42;;;;;;;1.88;0.93;;;24.40;40.30;;;;;;5080037;28;20418;-48
2021/04/09 13:25:47;;;;;;;1.83;1.00;;;24.20;40.10;;;;;;5096452;28;20107;-48
2021/04/09 13:28:52;;;;;;;6.55;1.10;;;22.80;40.60;;;;;;5082551;28;20032;-47
2021/04/09 13:31:56;;;;;;;2.03;1.00;;;24.90;40.80;;;;;;5101581;28;20036;-46
2021/04/09 13:35:00;;;;;;;4.20;1.10;;;26.00;39.70;;;;;;5094245;28;20048;-48
2021/04/09 13:38:10;;;;;;;1.90;1.15;;;23.50;41.50;;;;;;5092290;28;20398;-46
2021/04/09 13:41:15;;;;;;;3.40;1.20;;;23.50;43.10;;;;;;5095786;28;20039;-45
2021/04/09 13:44:19;;;;;;;3.83;1.75;;;23.50;42.50;;;;;;5103166;28;20023;-50
2021/04/09 13:47:24;;;;;;;3.05;1.58;;;23.70;42.20;;;;;;5100861;28;20039;-48
2021/04/09 13:50:27;;;;;;;4.70;1.55;;;23.30;41.80;;;;;;5110588;28;20036;-50
2021/04/09 13:53:32;;;;;;;4.85;1.23;;;22.80;43.00;;;;;;5111278;28;20036;-47
2021/04/09 13:56:36;;;;;;;4.38;1.52;;;21.60;44.80;;;;;;5110326;28;20053;-46
2021/04/09 13:59:41;;;;;;;3.88;1.13;;;21.40;44.90;;;;;;5111042;28;20043;-45
2021/04/09 14:02:46;;;;;;;8.23;2.20;;;21.80;45.70;;;;;;5111113;28;20042;-50
2021/04/09 14:05:51;;;;;;;2.67;1.30;;;19.60;47.80;;;;;;5110380;28;20038;-45
2021/04/09 14:08:54;;;;;;;3.33;1.27;;;20.60;47.70;;;;;;5106922;28;20035;-45
2021/04/09 14:11:59;;;;;;;6.10;1.25;;;20.80;45.60;;;;;;5087897;28;20032;-45
2021/04/09 14:15:05;;;;;;;5.28;1.45;;;20.00;47.40;;;;;;5087544;28;20047;-44
2021/04/09 14:18:09;;;;;;;4.10;1.20;;;20.50;46.40;;;;;;5090164;28;20055;-48
2021/04/09 14:21:13;;;;;;;2.60;1.27;;;21.20;45.20;;;;;;5090029;28;20041;-45
2021/04/09 14:24:18;;;;;;;2.95;1.23;;;21.60;44.40;;;;;;5090179;28;20036;-46
2021/04/09 14:27:22;;;;;;;1.88;0.93;;;20.30;46.50;;;;;;5076435;28;20547;-44
2021/04/09 14:30:26;;;;;;;5.40;1.50;;;19.30;47.10;;;;;;5090233;28;20036;-45
2021/04/09 14:33:30;;;;;;;6.45;1.25;;;19.10;48.20;;;;;;5090270;28;20518;-47
2021/04/09 14:36:35;;;;;;;1.80;1.10;;;19.00;47.00;;;;;;5080964;28;20047;-46
2021/04/09 14:39:39;;;;;;;5.03;1.30;;;18.80;47.80;;;;;;5081742;28;20560;-44
2021/04/09 14:42:44;;;;;;;1.80;1.20;;;18.80;48.40;;;;;;5074663;28;20036;-46
2021/04/09 14:45:48;;;;;;;2.53;1.40;;;19.10;47.00;;;;;;5084488;28;20043;-48
2021/04/09 14:48:52;;;;;;;2.92;1.42;;;18.50;47.50;;;;;;5080596;28;20042;-45
2021/04/09 14:51:56;;;;;;;5.28;1.50;;;19.10;47.60;;;;;;5078636;28;20043;-46
2021/04/09 14:55:01;;;;;;;3.00;1.42;;;18.60;47.80;;;;;;5079871;28;20051;-45
2021/04/09 14:58:05;;;;;;;5.57;1.90;;;18.90;47.30;;;;;;5076964;28;20044;-47
2021/04/09 15:01:10;;;;;;;3.03;1.30;;;18.00;49.50;;;;;;5088648;28;20047;-47
2021/04/09 15:04:14;;;;;;;3.70;0.98;;;18.40;48.80;;;;;;5080455;28;20043;-49
2021/04/09 15:07:21;;;;;;;3.13;1.30;;;18.30;48.30;;;;;;5078901;28;20564;-46
2021/04/09 15:10:25;;;;;;;3.35;1.23;;;18.40;48.90;;;;;;5081382;28;20941;-48
2021/04/09 15:13:29;;;;;;;5.88;1.35;;;18.50;48.60;;;;;;5078681;28;20032;-49
2021/04/09 15:16:33;;;;;;;2.80;1.10;;;17.80;48.60;;;;;;5078022;28;20055;-49
2021/04/09 15:19:38;;;;;;;5.70;1.15;;;18.00;48.30;;;;;;5081877;28;20039;-51
2021/04/09 15:22:43;;;;;;;3.67;1.40;;;18.30;49.30;;;;;;5085296;28;20035;-44
2021/04/09 15:25:48;;;;;;;5.45;1.42;;;17.70;49.40;;;;;;5081518;28;20609;-48
2021/04/09 15:28:52;;;;;;;3.63;1.10;;;18.00;47.50;;;;;;5079689;28;20039;-46
2021/04/09 15:31:57;;;;;;;11.23;1.50;;;18.10;47.20;;;;;;5084910;28;20402;-47
2021/04/09 15:35:01;;;;;;;3.17;1.27;;;17.90;49.00;;;;;;5083920;28;20426;-48
2021/04/09 15:38:05;;;;;;;3.78;1.30;;;18.50;49.00;;;;;;5083463;28;20044;-49
2021/04/09 15:41:10;;;;;;;4.15;1.55;;;18.90;48.30;;;;;;5081757;28;20061;-48
2021/04/09 15:44:14;;;;;;;4.13;1.25;;;18.80;47.10;;;;;;5079710;28;20518;-46
2021/04/09 15:47:18;;;;;;;3.15;1.50;;;18.00;49.00;;;;;;5081379;28;20044;-47
2021/04/09 15:50:23;;;;;;;3.53;1.50;;;17.80;47.30;;;;;;5079760;28;20055;-45
2021/04/09 15:53:27;;;;;;;3.33;1.30;;;18.30;49.40;;;;;;5076957;28;20047;-48
2021/04/09 15:56:32;;;;;;;3.25;1.45;;;18.60;49.20;;;;;;5078762;28;20037;-45
2021/04/09 15:59:36;;;;;;;4.65;1.55;;;18.40;46.10;;;;;;5077087;28;20032;-47
2021/04/09 16:02:40;;;;;;;3.47;1.13;;;17.90;47.40;;;;;;5077761;28;20035;-45
2021/04/09 16:05:45;;;;;;;13.70;2.20;;;18.00;48.00;;;;;;5082287;28;21614;-48
2021/04/09 16:08:50;;;;;;;3.65;1.17;;;18.10;47.90;;;;;;5080520;28;20424;-48
2021/04/09 16:11:55;;;;;;;4.10;1.20;;;17.50;48.60;;;;;;5078305;28;20047;-47